Gao Qiang — VRVQ8 — position and weather

sailwx.info

Track history (hours):
 
Tides and Currents Weather Stations Pressure Air Temp Water Temp Dewpoint Dewpoint Depression Visibility Wind Speed Wind Dir Waves Ship Positions

Gao Qiang

Last reported at 2014-Jul-24 18:24 UTC. Time now 2014-Jul-30 01:06 UTC.
Position N 01°10' E 103°47'.

Length 186 m; draft 9.2 m.

Type: Cargo ship. MMSI: 477611000.

Date/timePositionNaut miles runAvg speedWind from/ knotsBaromVisibWave heightAir tempDewpointWater temp
2014-Jul-24 18:24N 01°10' E 103°47'6 7.1
2014-Jul-24 17:33N 01°12' E 103°52'7 7.2
2014-Jul-24 16:33N 01°16' E 103°58'2 1.5
2014-Jul-24 15:29N 01°17' E 103°59'0 0.0
2014-Jul-24 14:32N 01°17' E 103°59'0 0.2
2014-Jul-24 13:32N 01°17' E 103°59'0 0.0
2014-Jul-24 12:32N 01°17' E 103°59'0 0.0
2014-Jul-24 11:32N 01°17' E 103°59'0 0.0
2014-Jul-24 10:32N 01°17' E 103°59'0 0.0
2014-Jul-23 20:14N 01°17' E 103°59'0 0.0
2014-Jul-23 19:25N 01°17' E 103°59'0 0.1
2014-Jul-23 18:33N 01°17' E 103°59'2 2.2
2014-Jul-23 17:33N 01°16' E 103°57'  
2014-Jul-15 15:20N 29°35' E 123°15'810.6
2014-Jul-15 14:32N 29°43' E 123°16'2311.3
2014-Jul-15 12:31N 30°06' E 123°19'4012.9
2014-Jul-15 09:26N 30°46' E 123°20'  
Track history (hours):
 
Tides and Currents Weather Stations Pressure Air Temp Water Temp Dewpoint Dewpoint Depression Visibility Wind Speed Wind Dir Waves Ship Positions

Gao Qiang

Last reported at 2014-Jul-24 18:24 UTC. Time now 2014-Jul-30 01:06 UTC.
Position N 01°10' E 103°47'.

Length 186 m; draft 9.2 m.

Type: Cargo ship. MMSI: 477611000.

Date/timePositionNaut miles runAvg speedWind from/ knotsBaromVisibWave heightAir tempDewpointWater temp
2014-Jul-24 18:24N 01°10' E 103°47'6 7.1
2014-Jul-24 17:33N 01°12' E 103°52'7 7.2
2014-Jul-24 16:33N 01°16' E 103°58'2 1.5
2014-Jul-24 15:29N 01°17' E 103°59'0 0.0
2014-Jul-24 14:32N 01°17' E 103°59'0 0.2
2014-Jul-24 13:32N 01°17' E 103°59'0 0.0
2014-Jul-24 12:32N 01°17' E 103°59'0 0.0
2014-Jul-24 11:32N 01°17' E 103°59'0 0.0
2014-Jul-24 10:32N 01°17' E 103°59'0 0.0
2014-Jul-23 20:14N 01°17' E 103°59'0 0.0
2014-Jul-23 19:25N 01°17' E 103°59'0 0.1
2014-Jul-23 18:33N 01°17' E 103°59'2 2.2
2014-Jul-23 17:33N 01°16' E 103°57'  
2014-Jul-15 15:20N 29°35' E 123°15'810.6
2014-Jul-15 14:32N 29°43' E 123°16'2311.3
2014-Jul-15 12:31N 30°06' E 123°19'4012.9
2014-Jul-15 09:26N 30°46' E 123°20'  

Dump ship's entire track history